Accueil
METAR-TAF:

METAR-TAF

Aéroports :

Bristol, Angleterre

Aéroport de Bristol

latitude: 51-23N, longitude: 002-43W, altitude: 189 m

Observation

Le bulletin a été fait il y a 28 minutes, à 20:50 UTC
Vent 6 kt de sud-est
Température 6°C
Humidité 65%
Pression 1020 hPa
Visibilité 10 km ou plus

METAR: EGGD 262050Z AUTO 13006KT 9999 NCD 06/M00 Q1020

Heure: 22:18 (21:18 UTC)

Prévision

Le bulletin a été fait il y a 4 heures et 20 minutes, à 16:58 UTC
Prévision valable du 26 à 18 UTC au 27 à 18 UTC
Vent 12 kt de nord
Visibilité 10 km ou plus
Nuages épars à une hauteur de 3500 ft
Evoluant progressivement
du 27 à 02 UTC au 27 à 05 UTC
Vent 8 kt de ouest
Probabilité 40% :
Temporairement
du 27 à 15 UTC au 27 à 18 UTC
Visibilité: 8000 m
Nuages fragmentés à une hauteur de 1400 ft
pluie faible

TAF: EGGD 261658Z 2618/2718 01012KT 9999 SCT035 BECMG 2702/2705 28008KT PROB40 TEMPO 2715/2718 8000 -RA BKN014

Observations et prévisions météorologiques de plus de 4000 aéroports (messages METAR et TAF).

Les stations disponibles sont représentées par des disques jaunes et rouges sur la carte.

Passer la souris dessus pour voir le nom de la station.

Cliquer dessus pour voir les observations et prévisions météorologiques.

Pour changer de carte: cliquez sur les boutons verts avec une croix noire pour zoomer, sur le bouton vert avec un tiret pour effectuer un zoom arrière, ou sur les flèches vertes pour les cartes adjacentes.


METAR-TAF: